createdAt,value
2018-03-18T00:00:03.592Z,56.99
2018-03-18T00:01:03.820Z,56.62
2018-03-18T00:02:03.831Z,56.97
2018-03-18T00:03:03.554Z,56.9
2018-03-18T00:04:03.564Z,56.68
2018-03-18T00:05:03.578Z,56.87
2018-03-18T00:06:03.589Z,56.59
2018-03-18T00:07:03.876Z,56.68
2018-03-18T00:08:03.905Z,56.78
2018-03-18T00:09:03.618Z,56.4
2018-03-18T00:10:03.674Z,56.9
2018-03-18T00:11:03.926Z,57.35
2018-03-18T00:12:03.645Z,57.25
2018-03-18T00:13:03.944Z,56.9
2018-03-18T00:14:03.674Z,56.78
2018-03-18T00:15:04.016Z,56.68
2018-03-18T00:16:03.696Z,56.81
2018-03-18T00:17:03.979Z,56.4
2018-03-18T00:18:03.992Z,56.49
2018-03-18T00:19:03.717Z,56.4
2018-03-18T00:20:03.730Z,56.4
2018-03-18T00:21:04.018Z,56.12
2018-03-18T00:22:03.824Z,56.24
2018-03-18T00:23:04.042Z,56.3
2018-03-18T00:24:04.059Z,56.4
2018-03-18T00:25:04.059Z,56.3
2018-03-18T00:26:03.788Z,56.59
2018-03-18T00:27:03.799Z,56.78
2018-03-18T00:28:04.095Z,56.68
2018-03-18T00:29:03.820Z,56.59
2018-03-18T00:30:03.839Z,56.59
2018-03-18T00:31:03.837Z,56.12
2018-03-18T00:32:03.852Z,56.3
2018-03-18T00:33:03.862Z,56.02
2018-03-18T00:34:03.869Z,56.02
2018-03-18T00:35:04.218Z,56.49
2018-03-18T00:36:04.183Z,56.68
2018-03-18T00:37:03.909Z,56.78
2018-03-18T00:38:03.910Z,56.02
2018-03-18T00:39:03.921Z,55.45
2018-03-18T00:40:03.980Z,56.02
2018-03-18T00:41:03.942Z,55.83
2018-03-18T00:42:04.238Z,56.21
2018-03-18T00:43:03.961Z,56.59
2018-03-18T00:44:04.253Z,56.21
2018-03-18T00:45:04.031Z,55.55
2018-03-18T00:46:03.989Z,55.36
2018-03-18T00:47:04.285Z,55.07
2018-03-18T00:48:04.295Z,55.17
2018-03-18T00:49:04.020Z,55.64
2018-03-18T00:50:04.033Z,55.36
2018-03-18T00:51:04.041Z,55.26
2018-03-18T00:52:04.335Z,55.55
2018-03-18T00:53:04.346Z,55.64
2018-03-18T00:54:04.356Z,55.36
2018-03-18T00:55:04.083Z,55.45
2018-03-18T00:56:04.384Z,54.6
2018-03-18T00:57:04.102Z,54.79
2018-03-18T00:58:04.401Z,54.6
2018-03-18T00:59:04.123Z,54.98
2018-03-18T01:00:04.470Z,54.98
2018-03-18T01:01:04.146Z,55.17
2018-03-18T01:02:04.157Z,54.6
2018-03-18T01:03:04.472Z,54.88
2018-03-18T01:04:04.176Z,54.98
2018-03-18T01:05:04.183Z,55.07
2018-03-18T01:06:04.474Z,55.36
2018-03-18T01:07:04.491Z,55.36
2018-03-18T01:08:04.211Z,55.07
2018-03-18T01:09:04.226Z,54.32
2018-03-18T01:10:04.517Z,54.13
2018-03-18T01:11:04.244Z,54.5
2018-03-18T01:12:04.537Z,54.41
2018-03-18T01:13:04.266Z,54.6
2018-03-18T01:14:04.630Z,54.88
2018-03-18T01:15:04.568Z,54.69
2018-03-18T01:16:04.574Z,53.94
2018-03-18T01:17:04.308Z,53.46
2018-03-18T01:18:04.599Z,53.27
2018-03-18T01:19:04.324Z,53.65
2018-03-18T01:20:04.618Z,53.75
2018-03-18T01:21:04.344Z,53.84
2018-03-18T01:22:04.636Z,54.79
2018-03-18T01:23:04.365Z,54.69
2018-03-18T01:24:04.656Z,54.69
2018-03-18T01:25:04.674Z,54.41
2018-03-18T01:26:04.393Z,53.75
2018-03-18T01:27:04.404Z,53.56
2018-03-18T01:28:04.697Z,53.08
2018-03-18T01:29:04.708Z,53.37
2018-03-18T01:30:04.433Z,53.18
2018-03-18T01:31:04.726Z,53.56
2018-03-18T01:32:04.459Z,53.25
2018-03-18T01:33:04.751Z,53.27
2018-03-18T01:34:04.761Z,53.94
2018-03-18T01:35:04.766Z,53.65
2018-03-18T01:36:04.775Z,53.84
2018-03-18T01:37:04.790Z,53.75
2018-03-18T01:38:04.799Z,53.75
2018-03-18T01:39:04.523Z,53.75
2018-03-18T01:40:04.536Z,53.27
2018-03-18T01:41:04.824Z,53.46
2018-03-18T01:42:04.552Z,53.46
2018-03-18T01:43:04.855Z,53.27
2018-03-18T01:44:04.855Z,53.46
2018-03-18T01:45:04.892Z,53.84
2018-03-18T01:46:04.875Z,53.46
2018-03-18T01:47:04.883Z,52.68
2018-03-18T01:48:04.612Z,52.87
2018-03-18T01:49:04.621Z,52.39
2018-03-18T01:50:04.915Z,52.39
2018-03-18T01:51:04.640Z,52.11
2018-03-18T01:52:04.947Z,52.11
2018-03-18T01:53:04.664Z,52.29
2018-03-18T01:54:04.954Z,52.29
2018-03-18T01:55:04.679Z,53.25
2018-03-18T01:56:04.971Z,53.06
2018-03-18T01:57:04.704Z,53.06
2018-03-18T01:58:04.710Z,53.06
2018-03-18T01:59:05.007Z,53.25
2018-03-18T02:00:04.734Z,53.06
2018-03-18T02:01:04.737Z,53.91
2018-03-18T02:02:05.033Z,53.63
2018-03-18T02:03:04.757Z,54
2018-03-18T02:04:04.768Z,54.67
2018-03-18T02:05:05.061Z,54.67
2018-03-18T02:06:04.808Z,54.38
2018-03-18T02:07:04.807Z,54.47
2018-03-18T02:08:05.089Z,54.38
2018-03-18T02:09:05.095Z,54.1
2018-03-18T02:10:04.824Z,54.57
2018-03-18T02:11:04.833Z,54.38
2018-03-18T02:12:04.844Z,53.81
2018-03-18T02:13:05.138Z,53.63
2018-03-18T02:14:05.151Z,53.72
2018-03-18T02:15:04.873Z,53.25
2018-03-18T02:16:04.883Z,52.96
2018-03-18T02:17:05.176Z,53.06
2018-03-18T02:18:05.187Z,53.15
2018-03-18T02:19:04.913Z,53.34
2018-03-18T02:20:05.204Z,53.53
2018-03-18T02:21:05.217Z,53.53
2018-03-18T02:22:05.224Z,53.81
2018-03-18T02:23:04.955Z,54
2018-03-18T02:24:05.245Z,53.63
2018-03-18T02:25:05.271Z,53.53
2018-03-18T02:26:05.266Z,53.34
2018-03-18T02:27:04.991Z,53.25
2018-03-18T02:28:05.000Z,53.25
2018-03-18T02:29:05.289Z,53.15
2018-03-18T02:30:05.308Z,52.96
2018-03-18T02:31:05.032Z,53.06
2018-03-18T02:32:05.326Z,53.72
2018-03-18T02:33:05.377Z,53.44
2018-03-18T02:34:05.349Z,53.44
2018-03-18T02:35:05.070Z,53.63
2018-03-18T02:36:05.365Z,53.15
2018-03-18T02:37:05.144Z,52.96
2018-03-18T02:38:05.104Z,53.25
2018-03-18T02:39:05.108Z,53.15
2018-03-18T02:40:05.123Z,52.58
2018-03-18T02:41:05.178Z,53.53
2018-03-18T02:42:05.137Z,53.15
2018-03-18T02:43:05.145Z,53.15
2018-03-18T02:44:05.159Z,53.34
2018-03-18T02:45:05.447Z,52.96
2018-03-18T02:46:05.180Z,53.53
2018-03-18T02:47:05.476Z,53.63
2018-03-18T02:48:05.486Z,52.96
2018-03-18T02:49:05.203Z,53.25
2018-03-18T02:50:05.499Z,53.72
2018-03-18T02:51:05.516Z,54.1
2018-03-18T02:52:05.516Z,54.28
2018-03-18T02:53:05.541Z,53.81
2018-03-18T02:54:05.539Z,53.44
2018-03-18T02:55:05.262Z,53.72
2018-03-18T02:56:05.553Z,53.53
2018-03-18T02:57:05.564Z,53.06
2018-03-18T02:58:05.580Z,53.53
2018-03-18T02:59:05.580Z,52.87
2018-03-18T03:00:05.621Z,53.06
2018-03-18T03:01:05.603Z,53.06
2018-03-18T03:02:05.618Z,53.44
2018-03-18T03:03:05.338Z,53.25
2018-03-18T03:04:05.353Z,53.06
2018-03-18T03:05:05.359Z,53.34
2018-03-18T03:06:05.681Z,52.87
2018-03-18T03:07:05.656Z,53.25
2018-03-18T03:08:05.670Z,53.53
2018-03-18T03:09:05.676Z,53.44
2018-03-18T03:10:05.406Z,54
2018-03-18T03:11:05.416Z,54.47
2018-03-18T03:12:05.421Z,54.57
2018-03-18T03:13:05.722Z,54.67
2018-03-18T03:14:05.727Z,54
2018-03-18T03:15:05.734Z,53.81
2018-03-18T03:16:05.458Z,53.44
2018-03-18T03:17:05.753Z,53.34
2018-03-18T03:18:05.764Z,53.44
2018-03-18T03:19:05.771Z,53.44
2018-03-18T03:20:05.784Z,53.25
2018-03-18T03:21:05.508Z,53.44
2018-03-18T03:22:05.517Z,53.06
2018-03-18T03:23:05.812Z,53.53
2018-03-18T03:24:05.536Z,52.96
2018-03-18T03:25:05.625Z,53.06
2018-03-18T03:26:05.561Z,53.53
2018-03-18T03:27:05.847Z,53.63
2018-03-18T03:28:05.575Z,53.15
2018-03-18T03:29:05.868Z,52.96
2018-03-18T03:30:05.597Z,52.96
2018-03-18T03:31:05.899Z,53.06
2018-03-18T03:32:05.902Z,53.25
2018-03-18T03:33:05.907Z,53.53
2018-03-18T03:34:05.958Z,53.44
2018-03-18T03:35:05.642Z,53.25
2018-03-18T03:36:05.653Z,52.96
2018-03-18T03:37:05.945Z,53.44
2018-03-18T03:38:06.102Z,52.96
2018-03-18T03:39:05.680Z,53.06
2018-03-18T03:40:06.116Z,52.96
2018-03-18T03:41:05.982Z,53.63
2018-03-18T03:42:05.991Z,52.96
2018-03-18T03:43:05.996Z,52.87
2018-03-18T03:44:05.728Z,52.77
2018-03-18T03:45:06.019Z,52.77
2018-03-18T03:46:06.030Z,52.01
2018-03-18T03:47:06.045Z,52.2
2018-03-18T03:48:05.768Z,52.2
2018-03-18T03:49:06.057Z,52.11
2018-03-18T03:50:06.067Z,52.58
2018-03-18T03:51:05.796Z,52.77
2018-03-18T03:52:05.807Z,52.96
2018-03-18T03:53:06.102Z,52.77
2018-03-18T03:54:06.110Z,52.87
2018-03-18T03:55:06.116Z,53.25
2018-03-18T03:56:06.361Z,52.87
2018-03-18T03:57:06.415Z,52.58
2018-03-18T03:58:06.381Z,53.34
2018-03-18T03:59:06.392Z,53.25
2018-03-18T04:00:06.130Z,53.25
2018-03-18T04:01:06.175Z,53.44
2018-03-18T04:02:05.898Z,53.15
2018-03-18T04:03:06.197Z,53.25
2018-03-18T04:04:05.918Z,53.53
2018-03-18T04:05:06.208Z,52.77
2018-03-18T04:06:06.222Z,52.48
2018-03-18T04:07:06.281Z,52.68
2018-03-18T04:08:06.238Z,53.44
2018-03-18T04:09:05.965Z,53.06
2018-03-18T04:10:05.976Z,53.44
2018-03-18T04:11:06.264Z,52.87
2018-03-18T04:12:06.322Z,52.77
2018-03-18T04:13:06.006Z,52.77
2018-03-18T04:14:06.299Z,52.68
2018-03-18T04:15:06.303Z,53.53
2018-03-18T04:16:06.028Z,53.06
2018-03-18T04:17:06.373Z,53.25
2018-03-18T04:18:06.354Z,53.15
2018-03-18T04:19:06.056Z,53.25
2018-03-18T04:20:06.348Z,52.87
2018-03-18T04:21:06.362Z,52.58
2018-03-18T04:22:06.368Z,52.58
2018-03-18T04:23:06.095Z,52.58
2018-03-18T04:24:06.389Z,52.39
2018-03-18T04:25:06.114Z,52.2
2018-03-18T04:26:06.122Z,52.68
2018-03-18T04:27:06.415Z,52.29
2018-03-18T04:28:06.429Z,51.92
2018-03-18T04:29:06.429Z,52.2
2018-03-18T04:30:06.444Z,52.11
2018-03-18T04:31:06.464Z,52.01
2018-03-18T04:32:06.465Z,52.29
2018-03-18T04:33:06.210Z,52.2
2018-03-18T04:34:06.484Z,52.2
2018-03-18T04:35:06.241Z,52.29
2018-03-18T04:36:06.504Z,52.29
2018-03-18T04:37:06.608Z,52.48
2018-03-18T04:38:06.519Z,52.29
2018-03-18T04:39:06.528Z,52.2
2018-03-18T04:40:06.262Z,52.48
2018-03-18T04:41:06.544Z,52.68
2018-03-18T04:42:06.558Z,52.87
2018-03-18T04:43:06.563Z,53.53
2018-03-18T04:44:06.577Z,52.58
2018-03-18T04:45:06.301Z,52.58
2018-03-18T04:46:06.308Z,52.29
2018-03-18T04:47:06.601Z,52.58
2018-03-18T04:48:06.611Z,52.77
2018-03-18T04:49:06.625Z,53.15
2018-03-18T04:50:06.350Z,52.87
2018-03-18T04:51:06.365Z,52.29
2018-03-18T04:52:06.420Z,52.48
2018-03-18T04:53:06.656Z,52.01
2018-03-18T04:54:06.666Z,52.01
2018-03-18T04:55:06.396Z,52.01
2018-03-18T04:56:06.684Z,52.2
2018-03-18T04:57:06.412Z,52.87
2018-03-18T04:58:06.707Z,52.39
2018-03-18T04:59:06.714Z,52.48
2018-03-18T05:00:06.726Z,52.01
2018-03-18T05:01:06.737Z,52.29
2018-03-18T05:02:06.457Z,52.11
2018-03-18T05:03:06.750Z,52.29
2018-03-18T05:04:06.477Z,52.29
2018-03-18T05:05:06.769Z,52.29
2018-03-18T05:06:06.495Z,52.2
2018-03-18T05:07:06.504Z,52.29
2018-03-18T05:08:06.513Z,52.2
2018-03-18T05:09:06.819Z,52.29
2018-03-18T05:10:06.813Z,52.39
2018-03-18T05:11:06.541Z,52.48
2018-03-18T05:12:06.555Z,52.39
2018-03-18T05:13:06.845Z,52.2
2018-03-18T05:14:06.574Z,52.48
2018-03-18T05:15:06.866Z,52.39
2018-03-18T05:16:06.598Z,52.29
2018-03-18T05:17:06.879Z,51.89
2018-03-18T05:18:06.613Z,52.29
2018-03-18T05:19:06.901Z,52.18
2018-03-18T05:20:06.627Z,52.01
2018-03-18T05:21:06.918Z,52.01
2018-03-18T05:22:06.926Z,52.2
2018-03-18T05:23:06.653Z,52.01
2018-03-18T05:24:06.949Z,52.2
2018-03-18T05:25:06.677Z,52.01
2018-03-18T05:26:06.966Z,52.08
2018-03-18T05:27:06.981Z,52.11
2018-03-18T05:28:06.980Z,51.7
2018-03-18T05:29:06.708Z,51.7
2018-03-18T05:30:06.721Z,51.8
2018-03-18T05:31:06.727Z,51.89
2018-03-18T05:32:07.019Z,52.27
2018-03-18T05:33:07.029Z,52.39
2018-03-18T05:34:07.037Z,52.18
2018-03-18T05:35:07.048Z,52.58
2018-03-18T05:36:06.776Z,52.18
2018-03-18T05:37:07.068Z,52.27
2018-03-18T05:38:07.080Z,52.2
2018-03-18T05:39:06.801Z,52.48
2018-03-18T05:40:07.094Z,52.29
2018-03-18T05:41:07.099Z,52.27
2018-03-18T05:42:06.827Z,52.11
2018-03-18T05:43:07.118Z,52.11
2018-03-18T05:44:06.848Z,52.2
2018-03-18T05:45:06.857Z,52.29
2018-03-18T05:46:07.149Z,52.01
2018-03-18T05:47:07.157Z,51.8
2018-03-18T05:48:07.166Z,52.01
2018-03-18T05:49:07.176Z,52.01
2018-03-18T05:50:07.184Z,52.01
2018-03-18T05:51:07.196Z,51.99
2018-03-18T05:52:06.921Z,52.11
2018-03-18T05:53:07.263Z,52.29
2018-03-18T05:54:07.223Z,52.18
2018-03-18T05:55:07.235Z,52.11
2018-03-18T05:56:07.240Z,52.29
2018-03-18T05:57:07.249Z,52.08
2018-03-18T05:58:06.975Z,52.18
2018-03-18T05:59:07.267Z,52.27
2018-03-18T06:00:07.275Z,52.48
2018-03-18T06:01:07.002Z,52.08
2018-03-18T06:02:07.298Z,52.48
2018-03-18T06:03:07.304Z,52.29
2018-03-18T06:04:07.332Z,51.92
2018-03-18T06:05:07.037Z,52.37
2018-03-18T06:06:07.048Z,52.46
2018-03-18T06:07:07.344Z,52.48
2018-03-18T06:08:07.066Z,52.2
2018-03-18T06:09:07.081Z,52.46
2018-03-18T06:10:07.085Z,52.11
2018-03-18T06:11:07.377Z,52.11
2018-03-18T06:12:07.390Z,52.08
2018-03-18T06:13:07.447Z,52.29
2018-03-18T06:14:07.405Z,52.39
2018-03-18T06:15:07.419Z,52.11
2018-03-18T06:16:07.419Z,52.01
2018-03-18T06:17:07.432Z,51.92
2018-03-18T06:18:07.448Z,52.29
2018-03-18T06:19:07.447Z,52.2
2018-03-18T06:20:07.459Z,52.29
2018-03-18T06:21:07.185Z,52.2
2018-03-18T06:22:07.481Z,51.92
2018-03-18T06:23:07.487Z,52.01
2018-03-18T06:24:07.494Z,51.64
2018-03-18T06:25:07.224Z,51.73
2018-03-18T06:26:07.515Z,52.08
2018-03-18T06:27:07.524Z,51.99
2018-03-18T06:28:07.534Z,52.11
2018-03-18T06:29:07.260Z,52.39
2018-03-18T06:30:07.552Z,52.2
2018-03-18T06:31:07.276Z,52.68
2018-03-18T06:32:07.572Z,52.29
2018-03-18T06:33:07.297Z,52.39
2018-03-18T06:34:07.590Z,52.37
2018-03-18T06:35:07.314Z,52.29
2018-03-18T06:36:07.324Z,52.39
2018-03-18T06:37:07.614Z,52.2
2018-03-18T06:38:07.349Z,52.29
2018-03-18T06:39:07.636Z,52.18
2018-03-18T06:40:07.647Z,52.01
2018-03-18T06:41:07.367Z,51.73
2018-03-18T06:42:07.384Z,51.92
2018-03-18T06:43:07.683Z,51.64
2018-03-18T06:44:07.733Z,51.61
2018-03-18T06:45:07.687Z,51.51
2018-03-18T06:46:07.697Z,51.42
2018-03-18T06:47:07.708Z,51.7
2018-03-18T06:48:07.720Z,51.99
2018-03-18T06:49:07.493Z,52.08
2018-03-18T06:50:07.746Z,52.27
2018-03-18T06:51:07.753Z,52.11
2018-03-18T06:52:07.752Z,52.08
2018-03-18T06:53:07.480Z,51.92
2018-03-18T06:54:07.826Z,51.99
2018-03-18T06:55:07.496Z,51.99
2018-03-18T06:56:07.795Z,51.99
2018-03-18T06:57:07.797Z,52.11
2018-03-18T06:58:07.807Z,51.89
2018-03-18T06:59:07.817Z,51.92
2018-03-18T07:00:07.825Z,51.92
2018-03-18T07:01:07.871Z,51.64
2018-03-18T07:02:07.844Z,51.92
2018-03-18T07:03:07.849Z,51.92
2018-03-18T07:04:07.627Z,52.11
2018-03-18T07:05:07.591Z,52.01
2018-03-18T07:06:07.883Z,51.8
2018-03-18T07:07:07.887Z,52.2
2018-03-18T07:08:07.613Z,52.48
2018-03-18T07:09:07.909Z,52.48
2018-03-18T07:10:07.643Z,52.48
2018-03-18T07:11:07.641Z,52.29
2018-03-18T07:12:07.652Z,52.48
2018-03-18T07:13:07.975Z,52.11
2018-03-18T07:14:07.667Z,52.2
2018-03-18T07:15:07.681Z,52.48
2018-03-18T07:16:07.688Z,52.29
2018-03-18T07:17:07.697Z,52.48
2018-03-18T07:18:07.987Z,52.29
2018-03-18T07:19:07.724Z,52.58
2018-03-18T07:20:08.180Z,52.11
2018-03-18T07:21:08.027Z,52.29
2018-03-18T07:22:08.038Z,52.39
2018-03-18T07:23:08.060Z,52.39
2018-03-18T07:24:08.046Z,52.58
2018-03-18T07:25:08.060Z,52.2
2018-03-18T07:26:07.780Z,52.87
2018-03-18T07:27:08.072Z,52.87
2018-03-18T07:28:08.077Z,52.2
2018-03-18T07:29:07.806Z,52.68
2018-03-18T07:30:07.816Z,52.77
2018-03-18T07:31:08.114Z,53.44
2018-03-18T07:32:08.120Z,53.25
2018-03-18T07:33:07.859Z,53.44
2018-03-18T07:34:08.139Z,53.44
2018-03-18T07:35:07.862Z,53.06
2018-03-18T07:36:08.171Z,52.48
2018-03-18T07:37:08.165Z,52.48
2018-03-18T07:38:08.238Z,52.01
2018-03-18T07:39:08.207Z,52.01
2018-03-18T07:40:08.194Z,51.82
2018-03-18T07:41:07.916Z,52.01
2018-03-18T07:42:08.271Z,51.82
2018-03-18T07:43:07.936Z,51.64
2018-03-18T07:44:08.235Z,51.64
2018-03-18T07:45:08.236Z,51.45
2018-03-18T07:46:08.256Z,51.54
2018-03-18T07:47:08.259Z,51.54
2018-03-18T07:48:08.273Z,51.54
2018-03-18T07:49:07.997Z,51.54
2018-03-18T07:50:08.000Z,51.73
2018-03-18T07:51:08.008Z,51.92
2018-03-18T07:52:08.019Z,52.2
2018-03-18T07:53:08.321Z,52.39
2018-03-18T07:54:08.320Z,51.92
2018-03-18T07:55:08.418Z,52.2
2018-03-18T07:56:08.340Z,52.11
2018-03-18T07:57:08.349Z,51.73
2018-03-18T07:58:08.074Z,51.54
2018-03-18T07:59:08.369Z,51.73
2018-03-18T08:00:08.389Z,51.73
2018-03-18T08:01:08.116Z,51.54
2018-03-18T08:02:08.407Z,51.82
2018-03-18T08:03:08.404Z,52.11
2018-03-18T08:04:08.136Z,52.29
2018-03-18T08:05:08.424Z,52.29
2018-03-18T08:06:08.152Z,52.2
2018-03-18T08:07:08.448Z,52.01
2018-03-18T08:08:08.454Z,52.2
2018-03-18T08:09:08.190Z,52.58
2018-03-18T08:10:08.482Z,52.2
2018-03-18T08:11:08.199Z,52.2
2018-03-18T08:12:08.489Z,52.11
2018-03-18T08:13:08.493Z,52.68
2018-03-18T08:14:08.241Z,52.87
2018-03-18T08:15:08.281Z,53.06
2018-03-18T08:16:08.243Z,53.44
2018-03-18T08:17:08.543Z,52.96
2018-03-18T08:18:08.258Z,53.34
2018-03-18T08:19:08.581Z,53.25
2018-03-18T08:20:08.564Z,53.06
2018-03-18T08:21:08.567Z,53.15
2018-03-18T08:22:08.590Z,52.96
2018-03-18T08:23:08.305Z,53.44
2018-03-18T08:24:08.595Z,53.25
2018-03-18T08:25:08.380Z,52.87
2018-03-18T08:26:08.335Z,52.68
2018-03-18T08:27:08.629Z,53.25
2018-03-18T08:28:08.365Z,53.53
2018-03-18T08:29:08.645Z,53.91
2018-03-18T08:30:08.370Z,54.1
2018-03-18T08:31:08.379Z,54
2018-03-18T08:32:08.389Z,54
2018-03-18T08:33:08.408Z,53.72
2018-03-18T08:34:08.411Z,53.91
2018-03-18T08:35:08.750Z,53.72
2018-03-18T08:36:08.716Z,53.25
2018-03-18T08:37:08.717Z,53.25
2018-03-18T08:38:08.445Z,53.08
2018-03-18T08:39:08.744Z,53.34
2018-03-18T08:40:08.748Z,53.27
2018-03-18T08:41:08.757Z,53.18
2018-03-18T08:42:08.765Z,53.27
2018-03-18T08:43:08.491Z,53.27
2018-03-18T08:44:08.501Z,53.18
2018-03-18T08:45:08.509Z,53.37
2018-03-18T08:46:08.805Z,53.27
2018-03-18T08:47:08.543Z,53.27
2018-03-18T08:48:08.538Z,53.46
2018-03-18T08:49:08.547Z,53.65
2018-03-18T08:50:08.838Z,53.37
2018-03-18T08:51:08.853Z,53.18
2018-03-18T08:52:08.859Z,53.27
2018-03-18T08:53:08.872Z,53.18
2018-03-18T08:54:08.596Z,53.18
2018-03-18T08:55:08.605Z,53.18
2018-03-18T08:56:08.896Z,53.65
2018-03-18T08:57:08.623Z,52.61
2018-03-18T08:58:08.644Z,52.61
2018-03-18T08:59:08.927Z,52.33
2018-03-18T09:00:08.935Z,53.08
2018-03-18T09:01:08.944Z,53.46
2018-03-18T09:02:08.956Z,53.18
2018-03-18T09:03:08.977Z,53.46
2018-03-18T09:04:08.706Z,52.98
2018-03-18T09:05:08.987Z,52.33
2018-03-18T09:06:08.996Z,52.51
2018-03-18T09:07:09.007Z,52.23
2018-03-18T09:08:09.010Z,52.33
2018-03-18T09:09:09.028Z,52.33
2018-03-18T09:10:09.034Z,52.51
2018-03-18T09:11:08.756Z,52.61
2018-03-18T09:12:09.056Z,52.33
2018-03-18T09:13:09.061Z,52.14
2018-03-18T09:14:09.075Z,51.85
2018-03-18T09:15:09.087Z,51.76
2018-03-18T09:16:09.089Z,51.85
2018-03-18T09:17:09.098Z,51.85
2018-03-18T09:18:09.106Z,51.76
2018-03-18T09:19:09.116Z,51.57
2018-03-18T09:20:08.845Z,51.47
2018-03-18T09:21:08.852Z,50.62
2018-03-18T09:22:08.860Z,51.57
2018-03-18T09:23:09.198Z,51.85
2018-03-18T09:24:08.879Z,52.14
2018-03-18T09:25:09.172Z,52.23
2018-03-18T09:26:09.185Z,51.95
2018-03-18T09:27:09.193Z,52.04
2018-03-18T09:28:08.920Z,52.14
2018-03-18T09:29:08.929Z,52.04
2018-03-18T09:30:08.938Z,52.14
2018-03-18T09:31:09.233Z,52.14
2018-03-18T09:32:09.241Z,51.85
2018-03-18T09:33:09.248Z,51.95
2018-03-18T09:34:09.270Z,52.14
2018-03-18T09:35:09.279Z,52.04
2018-03-18T09:36:09.299Z,52.04
2018-03-18T09:37:09.297Z,51.85
2018-03-18T09:38:09.015Z,51.66
2018-03-18T09:39:09.310Z,51.85
2018-03-18T09:40:09.322Z,52.04
2018-03-18T09:41:09.044Z,52.14
2018-03-18T09:42:09.344Z,52.23
2018-03-18T09:43:09.064Z,52.33
2018-03-18T09:44:09.077Z,52.7
2018-03-18T09:45:09.082Z,52.51
2018-03-18T09:46:09.090Z,52.51
2018-03-18T09:47:09.107Z,52.23
2018-03-18T09:48:09.393Z,52.33
2018-03-18T09:49:09.121Z,52.14
2018-03-18T09:50:09.417Z,51.85
2018-03-18T09:51:09.143Z,52.04
2018-03-18T09:52:09.149Z,52.33
2018-03-18T09:53:09.448Z,52.23
2018-03-18T09:54:09.452Z,52.33
2018-03-18T09:55:09.177Z,52.51
2018-03-18T09:56:09.238Z,52.51
2018-03-18T09:57:09.486Z,52.23
2018-03-18T09:58:09.208Z,52.51
2018-03-18T09:59:09.223Z,52.51
2018-03-18T10:00:09.226Z,52.26
2018-03-18T10:01:09.236Z,51.95
2018-03-18T10:02:09.548Z,51.47
2018-03-18T10:03:09.258Z,51.66
2018-03-18T10:04:09.554Z,51.76
2018-03-18T10:05:09.574Z,51.97
2018-03-18T10:06:09.286Z,51.76
2018-03-18T10:07:09.298Z,51.47
2018-03-18T10:08:09.646Z,51.57
2018-03-18T10:09:09.319Z,51.66
2018-03-18T10:10:09.327Z,51.66
2018-03-18T10:11:09.337Z,52.04
2018-03-18T10:12:09.344Z,52.73
2018-03-18T10:13:09.356Z,52.35
2018-03-18T10:14:09.363Z,52.16
2018-03-18T10:15:09.376Z,52.35
2018-03-18T10:16:09.383Z,51.78
2018-03-18T10:17:09.393Z,51.4
2018-03-18T10:18:09.404Z,51.31
2018-03-18T10:19:09.414Z,51.21
2018-03-18T10:20:09.424Z,51.12
2018-03-18T10:21:09.765Z,50.83
2018-03-18T10:22:09.442Z,50.55
2018-03-18T10:23:09.737Z,50.64
2018-03-18T10:24:09.746Z,50.83
2018-03-18T10:25:09.471Z,50.74
2018-03-18T10:26:09.764Z,50.83
2018-03-18T10:27:09.778Z,51.03
2018-03-18T10:28:09.801Z,51.12
2018-03-18T10:29:09.798Z,51.31
2018-03-18T10:30:09.527Z,51.21
2018-03-18T10:31:09.634Z,51.4
2018-03-18T10:32:09.543Z,50.93
2018-03-18T10:33:09.835Z,50.64
2018-03-18T10:34:09.563Z,50.83
2018-03-18T10:35:09.867Z,50.64
2018-03-18T10:36:09.868Z,50.83
2018-03-18T10:37:09.591Z,51.12
2018-03-18T10:38:09.887Z,51.31
2018-03-18T10:39:09.892Z,51.59
2018-03-18T10:40:09.909Z,51.31
2018-03-18T10:41:09.915Z,51.21
2018-03-18T10:42:09.926Z,51.31
2018-03-18T10:43:09.944Z,51.31
2018-03-18T10:44:09.946Z,51.21
2018-03-18T10:45:09.960Z,51.12
2018-03-18T10:46:09.965Z,51.03
2018-03-18T10:47:10.046Z,51.31
2018-03-18T10:48:09.992Z,51.21
2018-03-18T10:49:10.001Z,51.21
2018-03-18T10:50:10.011Z,51.31
2018-03-18T10:51:10.017Z,50.93
2018-03-18T10:52:10.027Z,51.12
2018-03-18T10:53:10.036Z,51.31
2018-03-18T10:54:10.053Z,50.55
2018-03-18T10:55:10.059Z,50.26
2018-03-18T10:56:10.069Z,50.45
2018-03-18T10:57:10.075Z,50.26
2018-03-18T10:58:10.088Z,50.45
2018-03-18T10:59:10.100Z,50.93
2018-03-18T11:00:10.109Z,50.83
2018-03-18T11:01:10.170Z,51.03
2018-03-18T11:02:09.844Z,51.21
2018-03-18T11:03:10.138Z,51.03
2018-03-18T11:04:10.146Z,50.83
2018-03-18T11:05:09.882Z,50.74
2018-03-18T11:06:10.173Z,50.55
2018-03-18T11:07:10.176Z,49.98
2018-03-18T11:08:10.193Z,50.07
2018-03-18T11:09:10.198Z,50.17
2018-03-18T11:10:09.929Z,50.55
2018-03-18T11:11:10.270Z,50.55
2018-03-18T11:12:10.229Z,50.55
2018-03-18T11:13:09.955Z,50.26
2018-03-18T11:14:10.246Z,50.07
2018-03-18T11:15:09.981Z,50.36
2018-03-18T11:16:10.344Z,50.07
2018-03-18T11:17:09.995Z,50.17
2018-03-18T11:18:10.288Z,50.64
2018-03-18T11:19:10.018Z,50.55
2018-03-18T11:20:10.315Z,50.93
2018-03-18T11:21:10.379Z,51.03
2018-03-18T11:22:10.055Z,50.45
2018-03-18T11:23:10.339Z,50.36
2018-03-18T11:24:10.349Z,50.45
2018-03-18T11:25:10.361Z,50.93
2018-03-18T11:26:10.137Z,50.83
2018-03-18T11:27:10.490Z,50.64
2018-03-18T11:28:10.393Z,50.36
2018-03-18T11:29:10.119Z,50.36
2018-03-18T11:30:10.528Z,50.36
2018-03-18T11:31:10.430Z,50.17
2018-03-18T11:32:10.437Z,50.36
2018-03-18T11:33:10.446Z,50.29
2018-03-18T11:34:10.458Z,50.26
2018-03-18T11:35:10.190Z,50.26
2018-03-18T11:36:10.193Z,50.2
2018-03-18T11:37:10.503Z,50.2
2018-03-18T11:38:10.212Z,50.38
2018-03-18T11:39:10.509Z,50.29
2018-03-18T11:40:10.519Z,50.38
2018-03-18T11:41:10.526Z,50.38
2018-03-18T11:42:10.533Z,50.01
2018-03-18T11:43:10.547Z,50.2
2018-03-18T11:44:10.556Z,49.82
2018-03-18T11:45:10.577Z,50.29
2018-03-18T11:46:10.575Z,50.1
2018-03-18T11:47:10.589Z,50.01
2018-03-18T11:48:10.318Z,50.38
2018-03-18T11:49:10.608Z,50.86
2018-03-18T11:50:10.623Z,50.86
2018-03-18T11:51:10.350Z,50.67
2018-03-18T11:52:10.636Z,50.57
2018-03-18T11:53:10.652Z,50.29
2018-03-18T11:54:10.724Z,50.57
2018-03-18T11:55:10.670Z,50.76
2018-03-18T11:56:10.396Z,50.48
2018-03-18T11:57:10.694Z,50.2
2018-03-18T11:58:10.699Z,50.57
2018-03-18T11:59:10.717Z,50.29
2018-03-18T12:00:10.719Z,50.2
2018-03-18T12:01:10.837Z,50.29
2018-03-18T12:02:10.743Z,49.82
2018-03-18T12:03:10.753Z,49.43
2018-03-18T12:04:10.483Z,50.29
2018-03-18T12:05:10.774Z,49.24
2018-03-18T12:06:10.782Z,49.91
2018-03-18T12:07:10.511Z,49.53
2018-03-18T12:08:10.523Z,49.43
2018-03-18T12:09:10.821Z,49.72
2018-03-18T12:10:10.831Z,49.15
2018-03-18T12:11:10.554Z,49.05
2018-03-18T12:12:10.850Z,49.24
2018-03-18T12:13:10.576Z,49.24
2018-03-18T12:14:10.876Z,49.24
2018-03-18T12:15:10.880Z,49.72
2018-03-18T12:16:10.890Z,49.63
2018-03-18T12:17:10.899Z,49.53
2018-03-18T12:18:10.913Z,49.72
2018-03-18T12:19:10.638Z,49.91
2018-03-18T12:20:10.650Z,50.01
2018-03-18T12:21:10.659Z,49.82
2018-03-18T12:22:10.953Z,50.2
2018-03-18T12:23:10.682Z,49.24
2018-03-18T12:24:10.977Z,48.68
2018-03-18T12:25:10.985Z,48.58
2018-03-18T12:26:10.998Z,48.49
2018-03-18T12:27:11.011Z,48.58
2018-03-18T12:28:10.731Z,48.11
2018-03-18T12:29:11.028Z,48.11
2018-03-18T12:30:11.052Z,48.01
2018-03-18T12:31:11.052Z,47.82
2018-03-18T12:32:10.775Z,48.01
2018-03-18T12:33:11.072Z,48.49
2018-03-18T12:34:11.078Z,48.58
2018-03-18T12:35:10.816Z,48.58
2018-03-18T12:36:11.106Z,48.39
2018-03-18T12:37:11.120Z,48.39
2018-03-18T12:38:11.123Z,48.39
2018-03-18T12:39:11.221Z,48.68
2018-03-18T12:40:11.158Z,48.3
2018-03-18T12:41:11.157Z,47.73
2018-03-18T12:42:11.181Z,47.73
2018-03-18T12:43:11.179Z,47.73
2018-03-18T12:44:11.196Z,47.73
2018-03-18T12:45:10.916Z,47.34
2018-03-18T12:46:10.923Z,47.25
2018-03-18T12:47:11.220Z,47.06
2018-03-18T12:48:11.230Z,47.06
2018-03-18T12:49:10.958Z,47.53
2018-03-18T12:50:11.256Z,47.73
2018-03-18T12:51:11.264Z,47.53
2018-03-18T12:52:11.276Z,47.44
2018-03-18T12:53:11.283Z,47.44
2018-03-18T12:54:11.295Z,47.92
2018-03-18T12:55:11.306Z,47.92